Patcona II — WDC2170 — position and weather

sailwx.info

Track history (hours):
 
Tides and Currents Weather Stations Pressure Air Temp Water Temp Dewpoint Dewpoint Depression Visibility Wind Speed Wind Dir Waves Ship Positions

Patcona II

Owner: Connolly-Pacific Co, long beach, CA. More information available from US FCC via Universal Licensing System and Coast Guard Vessel Documentation Center.

Last reported at 2016-Feb-13 12:34 UTC. Time now 2016-Feb-13 12:59 UTC.
Position N 33°46' W 118°13'.

; draft 9 m.

Type: Towing. MMSI: 366988960.

Date/timePositionNaut miles runAvg speedWind from/ knotsBaromVisibWave heightAir tempDewpointWater temp
2016-Feb-13 12:34N 33°46' W 118°13'1211871883.9
2016-Feb-13 12:33N 29°37' W 095°01'12111213.0
2016-Feb-13 11:34N 33°46' W 118°13'1211622803.4
2016-Feb-13 11:33N 29°37' W 095°01'0 0.0
2016-Feb-13 10:33N 29°37' W 095°01'1211311388.9
2016-Feb-13 10:33N 33°46' W 118°13'0 0.0
2016-Feb-13 09:34N 33°46' W 118°13'1211871883.9
2016-Feb-13 09:33N 29°37' W 095°01'12111212.6
2016-Feb-13 08:34N 33°46' W 118°13'1211871883.9
2016-Feb-13 08:33N 29°37' W 095°01'0 0.0
2016-Feb-13 07:33N 29°37' W 095°01'1211871887.5
2016-Feb-13 07:33N 33°46' W 118°13'12111212.5
2016-Feb-13 06:33N 29°37' W 095°00'121170326.9
2016-Feb-13 06:32N 33°46' W 118°13'0 0.0
2016-Feb-13 05:34N 33°46' W 118°13'1211726710.0
2016-Feb-13 05:33N 29°37' W 095°00'0 0.0
2016-Feb-13 04:33N 29°37' W 095°00'1211290684.0
2016-Feb-13 04:33N 33°46' W 118°13'12111216.3
2016-Feb-13 03:33N 29°37' W 095°00'1211124579.1
2016-Feb-13 03:33N 33°46' W 118°13'0 0.0
2016-Feb-13 02:34N 33°46' W 118°13'1215874510.6
2016-Feb-13 02:33N 29°36' W 094°57'12151215.9
2016-Feb-13 01:33N 33°46' W 118°13'1220878645.0
2016-Feb-13 01:33N 29°30' W 094°52'12201222.4
2016-Feb-13 00:34N 33°46' W 118°13'12267663.8
2016-Feb-13 00:24N 29°21' W 094°48'12261459.8
2016-Feb-12 23:34N 33°46' W 118°13'0 0.0
2016-Feb-12 22:33N 33°46' W 118°13'0 0.0
2016-Feb-12 21:32N 33°46' W 118°13'0 0.0
2016-Feb-12 20:34N 33°46' W 118°13'0 0.0
2016-Feb-12 19:34N 33°46' W 118°13'0 0.0
2016-Feb-12 18:34N 33°46' W 118°13'0 0.0
2016-Feb-12 17:33N 33°46' W 118°13'0 0.0
2016-Feb-12 16:33N 33°46' W 118°13'0 0.0
2016-Feb-12 15:33N 33°46' W 118°13'0 0.0
2016-Feb-12 14:33N 33°46' W 118°13'0 0.0
2016-Feb-12 13:30N 33°46' W 118°13'0 0.0
2016-Feb-12 12:31N 33°46' W 118°13'0 0.0
2016-Feb-12 11:33N 33°46' W 118°13'0 0.0
2016-Feb-12 10:33N 33°46' W 118°13'122415788.4
2016-Feb-12 10:28N 29°22' W 094°51'12241350.4
2016-Feb-12 09:34N 33°46' W 118°13'0 0.0
2016-Feb-12 08:34N 33°46' W 118°13'0 0.0
2016-Feb-12 07:33N 33°46' W 118°13'0 0.0
2016-Feb-12 06:34N 33°46' W 118°13'0 0.0
2016-Feb-12 05:33N 33°46' W 118°13'0 0.0
2016-Feb-12 04:33N 33°46' W 118°13'122623237.0
2016-Feb-12 04:30N 29°19' W 094°49'0 0.0
2016-Feb-12 03:31N 29°19' W 094°49'122688300.5
2016-Feb-12 03:31N 33°46' W 118°13'12261290.6
2016-Feb-12 02:34N 29°19' W 094°49'122640137.2
2016-Feb-12 02:32N 33°46' W 118°13'0 0.0
2016-Feb-12 01:33N 33°46' W 118°13'0 0.0
2016-Feb-12 00:34N 33°46' W 118°13'0 0.0
2016-Feb-11 23:33N 33°46' W 118°13'0 0.0
2016-Feb-11 22:33N 33°46' W 118°13'0 0.0
2016-Feb-11 21:30N 33°46' W 118°13'0 0.0
2016-Feb-11 20:33N 33°46' W 118°13'122549532.7
2016-Feb-11 20:32N 29°24' W 094°49'8 8.5
2016-Feb-11 19:34N 29°31' W 094°53'1219438740.4
2016-Feb-11 19:33N 33°46' W 118°13'0 0.0
2016-Feb-11 18:33N 33°46' W 118°13'1213150577.0
2016-Feb-11 18:33N 29°38' W 094°58'12131202.6
2016-Feb-11 17:32N 33°46' W 118°13'12042597.6
2016-Feb-11 17:05N 29°46' W 095°05'12042293.8
2016-Feb-11 16:33N 33°46' W 118°13'0 0.0
2016-Feb-11 15:34N 33°46' W 118°13'0 0.0
2016-Feb-11 14:11N 33°46' W 118°13'0 0.0
2016-Feb-11 13:31N 33°46' W 118°13'0 0.0
2016-Feb-11 12:32N 33°46' W 118°13'0 0.0
2016-Feb-11 11:27N 33°46' W 118°13'0 0.0
2016-Feb-11 10:15N 33°46' W 118°13'0 0.0
2016-Feb-11 09:34N 33°46' W 118°13'0 0.0
2016-Feb-11 08:33N 33°46' W 118°13'0 0.0
2016-Feb-11 07:34N 33°46' W 118°13'0 0.0
2016-Feb-11 06:34N 33°46' W 118°13'0 0.0
2016-Feb-11 05:33N 33°46' W 118°13'0 0.0
2016-Feb-11 04:33N 33°46' W 118°13'0 0.0
2016-Feb-11 03:34N 33°46' W 118°13'0 0.0
2016-Feb-11 02:34N 33°46' W 118°13'0 0.0
2016-Feb-11 01:34N 33°46' W 118°13'0 0.0
2016-Feb-11 00:34N 33°46' W 118°13'0 0.0
2016-Feb-10 23:33N 33°46' W 118°13'0 0.0
2016-Feb-10 22:31N 33°46' W 118°13'0 0.0
2016-Feb-10 21:33N 33°46' W 118°13'0 0.0
2016-Feb-10 20:33N 33°46' W 118°13'0 0.0
2016-Feb-10 19:33N 33°46' W 118°13'0 0.0
2016-Feb-10 18:33N 33°46' W 118°13'0 0.0
2016-Feb-10 17:33N 33°46' W 118°13'11966049.5
2016-Feb-10 17:22N 29°44' W 095°15'11961491.4
2016-Feb-10 16:33N 33°46' W 118°13'1200139317.8
2016-Feb-10 16:33N 29°45' W 095°11'12001210.8
2016-Feb-10 15:34N 33°46' W 118°13'0 0.0
2016-Feb-10 14:33N 33°46' W 118°13'120318592.8
2016-Feb-10 14:29N 29°46' W 095°06'12031279.0
2016-Feb-10 13:33N 33°46' W 118°13'0 0.0
2016-Feb-10 12:34N 33°46' W 118°13'12037009.6
2016-Feb-10 12:23N 29°47' W 095°06'12031453.2
2016-Feb-10 11:34N 33°46' W 118°13'0 0.0
2016-Feb-10 10:33N 33°46' W 118°13'0 0.0
2016-Feb-10 09:31N 33°46' W 118°13'0 0.0
2016-Feb-10 08:34N 33°46' W 118°13'12033242.5
2016-Feb-10 08:11N 29°47' W 095°06'12031913.4
2016-Feb-10 07:34N 33°46' W 118°13'120316597.5
2016-Feb-10 07:29N 29°47' W 095°06'12031297.4
2016-Feb-10 06:34N 33°46' W 118°13'12036964.6
2016-Feb-10 06:23N 29°47' W 095°06'12031455.1
2016-Feb-10 05:34N 33°46' W 118°13'0 0.0
2016-Feb-10 04:34N 33°46' W 118°13'12037021.0
2016-Feb-10 04:23N 29°47' W 095°06'12031452.7
2016-Feb-10 03:34N 33°46' W 118°13'0 0.0
2016-Feb-10 02:31N 33°46' W 118°13'0 0.0
2016-Feb-10 01:34N 33°46' W 118°13'0 0.0
2016-Feb-10 00:34N 33°46' W 118°13'12033235.2
2016-Feb-10 00:11N 29°47' W 095°06'12031866.4
2016-Feb-09 23:33N 33°46' W 118°13'0 0.0
2016-Feb-09 21:33N 33°46' W 118°13'0 0.0
2016-Feb-09 20:29N 33°46' W 118°13'0 0.0
2016-Feb-09 19:32N 33°46' W 118°13'12031057.1
2016-Feb-09 18:24N 29°47' W 095°06'120369870.3
2016-Feb-09 18:23N 33°46' W 118°13'0 0.0
2016-Feb-09 16:33N 33°46' W 118°13'0 0.0
2016-Feb-09 15:31N 33°46' W 118°13'0 0.0
2016-Feb-09 14:31N 33°46' W 118°13'0 0.0
2016-Feb-09 13:33N 33°46' W 118°13'120344664.7
2016-Feb-09 13:31N 29°46' W 095°06'12031208.8
2016-Feb-09 12:31N 33°46' W 118°13'11982669.2
2016-Feb-09 12:04N 29°44' W 095°13'11982327.8
2016-Feb-09 11:33N 33°46' W 118°13'0 0.0
2016-Feb-09 10:33N 33°46' W 118°13'0 0.0
2016-Feb-09 09:34N 33°46' W 118°13'0 0.0
2016-Feb-09 08:33N 33°46' W 118°13'0 0.0
2016-Feb-09 07:33N 33°46' W 118°13'0 0.0
2016-Feb-09 06:32N 33°46' W 118°13'0 0.0
2016-Feb-09 05:30N 33°46' W 118°13'11981242.9
2016-Feb-09 04:33N 29°43' W 095°13'119849024.8
2016-Feb-09 04:31N 33°46' W 118°13'0 0.0
2016-Feb-09 03:33N 33°46' W 118°13'0 0.0
2016-Feb-09 02:33N 33°46' W 118°13'0 0.0
2016-Feb-09 01:33N 33°46' W 118°13'1202618355.9
2016-Feb-09 01:33N 29°44' W 095°08'12021211.8
2016-Feb-09 00:34N 33°46' W 118°13'0 0.0
2016-Feb-08 23:34N 33°46' W 118°13'0 0.0
2016-Feb-08 22:34N 33°46' W 118°13'0 0.0
2016-Feb-08 21:34N 33°46' W 118°13'0 0.0
2016-Feb-08 19:33N 33°46' W 118°13'0 0.0
2016-Feb-08 18:33N 33°46' W 118°13'0 0.0
2016-Feb-08 17:34N 33°46' W 118°13'0 0.0
2016-Feb-08 16:33N 33°46' W 118°13'120411652.0
2016-Feb-08 16:27N 29°46' W 095°05'12041342.4
2016-Feb-08 15:33N 33°46' W 118°13'0 0.0
2016-Feb-08 14:33N 33°46' W 118°13'0 0.0
2016-Feb-08 13:34N 33°46' W 118°13'0 0.0
2016-Feb-08 12:33N 33°46' W 118°13'0 0.0
2016-Feb-08 11:33N 33°46' W 118°13'0 0.0
2016-Feb-08 10:32N 33°46' W 118°13'0 0.0
2016-Feb-08 09:33N 33°46' W 118°13'0 0.0
2016-Feb-08 08:32N 33°46' W 118°13'0 0.0
2016-Feb-08 07:28N 33°46' W 118°13'0 0.0
2016-Feb-08 06:29N 33°46' W 118°13'0 0.0
2016-Feb-08 05:33N 33°46' W 118°13'0 0.0
2016-Feb-08 04:33N 33°46' W 118°13'0 0.0
2016-Feb-08 03:34N 33°46' W 118°13'0 0.0
2016-Feb-08 02:27N 33°46' W 118°13'0 0.0
2016-Feb-08 01:34N 33°46' W 118°13'0 0.0
2016-Feb-08 00:31N 33°46' W 118°13'0 0.0
2016-Feb-07 23:16N 33°46' W 118°13'0 0.0
2016-Feb-07 21:32N 33°46' W 118°13'0 0.0
2016-Feb-07 20:34N 33°46' W 118°13'0 0.0
2016-Feb-07 19:13N 33°46' W 118°13'0 0.0
2016-Feb-07 18:33N 33°46' W 118°13'0 0.0
2016-Feb-07 17:33N 33°46' W 118°13'0 0.0
2016-Feb-07 16:32N 33°46' W 118°13'0 0.0
2016-Feb-07 15:34N 33°46' W 118°13'0 0.0
2016-Feb-07 14:33N 33°46' W 118°13'0 0.0
2016-Feb-07 13:32N 33°46' W 118°13'0 0.0
2016-Feb-07 12:31N 33°46' W 118°13'0 0.0
2016-Feb-07 08:33N 33°46' W 118°13'0 0.0
2016-Feb-07 07:33N 33°46' W 118°13'0 0.0
2016-Feb-07 06:34N 33°46' W 118°13'0 0.0
2016-Feb-07 05:33N 33°46' W 118°13'0 0.0
2016-Feb-07 04:32N 33°46' W 118°13'0 0.0
2016-Feb-07 03:33N 33°46' W 118°13'0 0.0
2016-Feb-07 02:34N 33°46' W 118°13'0 0.0
2016-Feb-07 01:34N 33°46' W 118°13'0 0.0
2016-Feb-07 00:32N 33°46' W 118°13'0 0.0
2016-Feb-06 23:33N 33°46' W 118°13'0 0.0
2016-Feb-06 22:34N 33°46' W 118°13'0 0.0
2016-Feb-06 21:33N 33°46' W 118°13'0 0.0
2016-Feb-06 20:33N 33°46' W 118°13'0 0.0
2016-Feb-06 19:33N 33°46' W 118°13'0 0.0
2016-Feb-06 18:30N 33°46' W 118°13'0 0.0
2016-Feb-06 17:33N 33°46' W 118°13'0 0.0
2016-Feb-06 16:30N 33°46' W 118°13'0 0.0
2016-Feb-06 15:33N 33°46' W 118°13'0 0.0
2016-Feb-06 14:34N 33°46' W 118°13'0 0.0
2016-Feb-06 13:34N 33°46' W 118°13'0 0.0
2016-Feb-06 12:33N 33°46' W 118°13'0 0.0
2016-Feb-06 11:33N 33°46' W 118°13'0 0.0
2016-Feb-06 10:33N 33°46' W 118°13'0 0.0
2016-Feb-06 09:33N 33°46' W 118°13'0 0.0
2016-Feb-06 08:33N 33°46' W 118°13'120457018.4
2016-Feb-06 08:32N 29°45' W 095°06'12041226.2
2016-Feb-06 07:33N 33°46' W 118°13'12016628.8
2016-Feb-06 07:22N 29°45' W 095°10'12011472.1
2016-Feb-06 06:34N 33°46' W 118°13'12016460.4
2016-Feb-06 06:22N 29°45' W 095°10'12011474.6
2016-Feb-06 05:34N 33°46' W 118°13'12014233.1
2016-Feb-06 05:17N 29°45' W 095°10'12011675.2
2016-Feb-06 04:34N 33°46' W 118°13'120133765.7
2016-Feb-06 04:31N 29°45' W 095°10'12011244.5
2016-Feb-06 03:33N 33°46' W 118°13'12018929.8
2016-Feb-06 03:25N 29°45' W 095°10'12011387.5
2016-Feb-06 02:34N 33°46' W 118°13'120150847.1
2016-Feb-06 02:32N 29°45' W 095°10'12011226.1
2016-Feb-06 01:33N 33°46' W 118°13'1201864400.0
2016-Feb-06 01:33N 29°45' W 095°10'12011202.2
2016-Feb-06 00:33N 33°46' W 118°13'120196044.4
2016-Feb-06 00:33N 29°45' W 095°10'12011215.8
2016-Feb-05 23:33N 33°46' W 118°13'1201180083.3
2016-Feb-05 23:33N 29°45' W 095°10'0 0.0
2016-Feb-05 22:33N 29°45' W 095°10'120144556.7
2016-Feb-05 22:32N 33°46' W 118°13'0 0.0
2016-Feb-05 21:33N 33°46' W 118°13'1201308714.8
2016-Feb-05 21:33N 29°45' W 095°10'12011169.7
2016-Feb-05 20:32N 33°46' W 118°13'120113764.6
2016-Feb-05 20:26N 29°45' W 095°10'12011356.6
2016-Feb-05 19:33N 33°46' W 118°13'1202123661.6
2016-Feb-05 19:33N 29°44' W 095°08'0 0.0
2016-Feb-05 18:33N 29°44' W 095°08'120215738.8
2016-Feb-05 18:29N 33°46' W 118°13'0 0.0
2016-Feb-05 17:33N 33°46' W 118°13'0 0.0
2016-Feb-05 16:33N 33°46' W 118°13'12023810.0
2016-Feb-05 16:14N 29°44' W 095°08'12021741.0
2016-Feb-05 15:33N 33°46' W 118°13'0 0.0
2016-Feb-05 14:33N 33°46' W 118°13'0 0.0
2016-Feb-05 13:33N 33°46' W 118°13'0 0.0
2016-Feb-05 12:33N 33°46' W 118°13'0 0.0
2016-Feb-05 11:33N 33°46' W 118°13'0 0.0
2016-Feb-05 10:33N 33°46' W 118°13'0 0.0
2016-Feb-05 09:33N 33°46' W 118°13'0 0.0
2016-Feb-05 08:33N 33°46' W 118°13'0 0.0
2016-Feb-05 07:33N 33°46' W 118°13'0 0.0
2016-Feb-05 06:25N 33°46' W 118°13'0 0.0
2016-Feb-05 05:33N 33°46' W 118°13'0 0.0
2016-Feb-05 04:33N 33°46' W 118°13'1196430639.3
2016-Feb-05 04:33N 29°44' W 095°16'5 5.1
2016-Feb-05 03:33N 29°45' W 095°10'1201105411.0
2016-Feb-05 03:33N 33°46' W 118°13'0 0.0
2016-Feb-05 02:32N 33°46' W 118°13'0 0.0
2016-Feb-05 01:32N 33°46' W 118°13'0 0.0
2016-Feb-05 00:23N 33°46' W 118°13'0 0.0
2016-Feb-04 23:31N 33°46' W 118°13'0 0.0
2016-Feb-04 22:33N 33°46' W 118°13'0 0.0
2016-Feb-04 21:34N 33°46' W 118°13'1201227501.0
2016-Feb-04 21:33N 29°45' W 095°10'12011207.4
2016-Feb-04 20:34N 33°46' W 118°13'0 0.0
2016-Feb-04 19:34N 33°46' W 118°13'0 0.0
2016-Feb-04 18:33N 33°46' W 118°13'0 0.0
2016-Feb-04 17:33N 33°46' W 118°13'0 0.0
2016-Feb-04 16:33N 33°46' W 118°13'0 0.0
2016-Feb-04 15:33N 33°46' W 118°13'0 0.0
2016-Feb-04 14:33N 33°46' W 118°13'0 0.0
2016-Feb-04 13:33N 33°46' W 118°13'0 0.0
2016-Feb-04 12:33N 33°46' W 118°13'0 0.0
2016-Feb-04 11:33N 33°46' W 118°13'0 0.0
2016-Feb-04 10:33N 33°46' W 118°13'0 0.0
2016-Feb-04 09:33N 33°46' W 118°13'0 0.0
2016-Feb-04 08:33N 33°46' W 118°13'0 0.0
2016-Feb-04 07:33N 33°46' W 118°13'0 0.0
2016-Feb-04 06:33N 33°46' W 118°13'0 0.0
2016-Feb-04 05:33N 33°46' W 118°13'0 0.0
2016-Feb-04 04:33N 33°46' W 118°13'0 0.0
2016-Feb-04 03:33N 33°46' W 118°13'12002992.1
2016-Feb-04 03:09N 29°45' W 095°11'12002003.0
2016-Feb-04 02:33N 33°46' W 118°13'11991078907.5
2016-Feb-04 02:33N 29°44' W 095°12'11991196.8
2016-Feb-04 01:33N 33°46' W 118°13'11991438543.4
2016-Feb-04 01:33N 29°44' W 095°12'11991203.1
2016-Feb-04 00:33N 33°46' W 118°13'11991078907.5
2016-Feb-04 00:33N 29°44' W 095°12'11991200.1
2016-Feb-03 23:33N 33°46' W 118°13'1199331971.5
2016-Feb-03 23:33N 29°44' W 095°12'11991203.5
2016-Feb-03 22:33N 33°46' W 118°13'1199863126.0
2016-Feb-03 22:33N 29°44' W 095°12'11991200.5
2016-Feb-03 21:33N 33°46' W 118°13'1199165985.8
2016-Feb-03 21:33N 29°44' W 095°12'11991207.5
2016-Feb-03 20:33N 33°46' W 118°13'1199172625.2
2016-Feb-03 20:33N 29°44' W 095°12'0 0.0
2016-Feb-03 19:34N 29°44' W 095°12'1199719272.8
2016-Feb-03 19:33N 33°46' W 118°13'0 0.0
2016-Feb-03 18:33N 33°46' W 118°13'11991078909.2
2016-Feb-03 18:33N 29°44' W 095°12'11991199.8
2016-Feb-03 17:33N 33°46' W 118°13'120059157.4
2016-Feb-03 17:32N 29°45' W 095°11'12001224.4
2016-Feb-03 16:33N 33°46' W 118°13'0 0.0
2016-Feb-03 15:33N 33°46' W 118°13'0 0.0
2016-Feb-03 14:33N 33°46' W 118°13'0 0.0
2016-Feb-03 13:29N 33°46' W 118°13'  
Track history (hours):
 
Tides and Currents Weather Stations Pressure Air Temp Water Temp Dewpoint Dewpoint Depression Visibility Wind Speed Wind Dir Waves Ship Positions

Patcona II

Owner: Connolly-Pacific Co, long beach, CA. More information available from US FCC via Universal Licensing System and Coast Guard Vessel Documentation Center.

Last reported at 2016-Feb-13 12:34 UTC. Time now 2016-Feb-13 12:59 UTC.
Position N 33°46' W 118°13'.

; draft 9 m.

Type: Towing. MMSI: 366988960.

Date/timePositionNaut miles runAvg speedWind from/ knotsBaromVisibWave heightAir tempDewpointWater temp
2016-Feb-13 12:34N 33°46' W 118°13'1211871883.9
2016-Feb-13 12:33N 29°37' W 095°01'12111213.0
2016-Feb-13 11:34N 33°46' W 118°13'1211622803.4
2016-Feb-13 11:33N 29°37' W 095°01'0 0.0
2016-Feb-13 10:33N 29°37' W 095°01'1211311388.9
2016-Feb-13 10:33N 33°46' W 118°13'0 0.0
2016-Feb-13 09:34N 33°46' W 118°13'1211871883.9
2016-Feb-13 09:33N 29°37' W 095°01'12111212.6
2016-Feb-13 08:34N 33°46' W 118°13'1211871883.9
2016-Feb-13 08:33N 29°37' W 095°01'0 0.0
2016-Feb-13 07:33N 29°37' W 095°01'1211871887.5
2016-Feb-13 07:33N 33°46' W 118°13'12111212.5
2016-Feb-13 06:33N 29°37' W 095°00'121170326.9
2016-Feb-13 06:32N 33°46' W 118°13'0 0.0
2016-Feb-13 05:34N 33°46' W 118°13'1211726710.0
2016-Feb-13 05:33N 29°37' W 095°00'0 0.0
2016-Feb-13 04:33N 29°37' W 095°00'1211290684.0
2016-Feb-13 04:33N 33°46' W 118°13'12111216.3
2016-Feb-13 03:33N 29°37' W 095°00'1211124579.1
2016-Feb-13 03:33N 33°46' W 118°13'0 0.0
2016-Feb-13 02:34N 33°46' W 118°13'1215874510.6
2016-Feb-13 02:33N 29°36' W 094°57'12151215.9
2016-Feb-13 01:33N 33°46' W 118°13'1220878645.0
2016-Feb-13 01:33N 29°30' W 094°52'12201222.4
2016-Feb-13 00:34N 33°46' W 118°13'12267663.8
2016-Feb-13 00:24N 29°21' W 094°48'12261459.8
2016-Feb-12 23:34N 33°46' W 118°13'0 0.0
2016-Feb-12 22:33N 33°46' W 118°13'0 0.0
2016-Feb-12 21:32N 33°46' W 118°13'0 0.0
2016-Feb-12 20:34N 33°46' W 118°13'0 0.0
2016-Feb-12 19:34N 33°46' W 118°13'0 0.0
2016-Feb-12 18:34N 33°46' W 118°13'0 0.0
2016-Feb-12 17:33N 33°46' W 118°13'0 0.0
2016-Feb-12 16:33N 33°46' W 118°13'0 0.0
2016-Feb-12 15:33N 33°46' W 118°13'0 0.0
2016-Feb-12 14:33N 33°46' W 118°13'0 0.0
2016-Feb-12 13:30N 33°46' W 118°13'0 0.0
2016-Feb-12 12:31N 33°46' W 118°13'0 0.0
2016-Feb-12 11:33N 33°46' W 118°13'0 0.0
2016-Feb-12 10:33N 33°46' W 118°13'122415788.4
2016-Feb-12 10:28N 29°22' W 094°51'12241350.4
2016-Feb-12 09:34N 33°46' W 118°13'0 0.0
2016-Feb-12 08:34N 33°46' W 118°13'0 0.0
2016-Feb-12 07:33N 33°46' W 118°13'0 0.0
2016-Feb-12 06:34N 33°46' W 118°13'0 0.0
2016-Feb-12 05:33N 33°46' W 118°13'0 0.0
2016-Feb-12 04:33N 33°46' W 118°13'122623237.0
2016-Feb-12 04:30N 29°19' W 094°49'0 0.0
2016-Feb-12 03:31N 29°19' W 094°49'122688300.5
2016-Feb-12 03:31N 33°46' W 118°13'12261290.6
2016-Feb-12 02:34N 29°19' W 094°49'122640137.2
2016-Feb-12 02:32N 33°46' W 118°13'0 0.0
2016-Feb-12 01:33N 33°46' W 118°13'0 0.0
2016-Feb-12 00:34N 33°46' W 118°13'0 0.0
2016-Feb-11 23:33N 33°46' W 118°13'0 0.0
2016-Feb-11 22:33N 33°46' W 118°13'0 0.0
2016-Feb-11 21:30N 33°46' W 118°13'0 0.0
2016-Feb-11 20:33N 33°46' W 118°13'122549532.7
2016-Feb-11 20:32N 29°24' W 094°49'8 8.5
2016-Feb-11 19:34N 29°31' W 094°53'1219438740.4
2016-Feb-11 19:33N 33°46' W 118°13'0 0.0
2016-Feb-11 18:33N 33°46' W 118°13'1213150577.0
2016-Feb-11 18:33N 29°38' W 094°58'12131202.6
2016-Feb-11 17:32N 33°46' W 118°13'12042597.6
2016-Feb-11 17:05N 29°46' W 095°05'12042293.8
2016-Feb-11 16:33N 33°46' W 118°13'0 0.0
2016-Feb-11 15:34N 33°46' W 118°13'0 0.0
2016-Feb-11 14:11N 33°46' W 118°13'0 0.0
2016-Feb-11 13:31N 33°46' W 118°13'0 0.0
2016-Feb-11 12:32N 33°46' W 118°13'0 0.0
2016-Feb-11 11:27N 33°46' W 118°13'0 0.0
2016-Feb-11 10:15N 33°46' W 118°13'0 0.0
2016-Feb-11 09:34N 33°46' W 118°13'0 0.0
2016-Feb-11 08:33N 33°46' W 118°13'0 0.0
2016-Feb-11 07:34N 33°46' W 118°13'0 0.0
2016-Feb-11 06:34N 33°46' W 118°13'0 0.0
2016-Feb-11 05:33N 33°46' W 118°13'0 0.0
2016-Feb-11 04:33N 33°46' W 118°13'0 0.0
2016-Feb-11 03:34N 33°46' W 118°13'0 0.0
2016-Feb-11 02:34N 33°46' W 118°13'0 0.0
2016-Feb-11 01:34N 33°46' W 118°13'0 0.0
2016-Feb-11 00:34N 33°46' W 118°13'0 0.0
2016-Feb-10 23:33N 33°46' W 118°13'0 0.0
2016-Feb-10 22:31N 33°46' W 118°13'0 0.0
2016-Feb-10 21:33N 33°46' W 118°13'0 0.0
2016-Feb-10 20:33N 33°46' W 118°13'0 0.0
2016-Feb-10 19:33N 33°46' W 118°13'0 0.0
2016-Feb-10 18:33N 33°46' W 118°13'0 0.0
2016-Feb-10 17:33N 33°46' W 118°13'11966049.5
2016-Feb-10 17:22N 29°44' W 095°15'11961491.4
2016-Feb-10 16:33N 33°46' W 118°13'1200139317.8
2016-Feb-10 16:33N 29°45' W 095°11'12001210.8
2016-Feb-10 15:34N 33°46' W 118°13'0 0.0
2016-Feb-10 14:33N 33°46' W 118°13'120318592.8
2016-Feb-10 14:29N 29°46' W 095°06'12031279.0
2016-Feb-10 13:33N 33°46' W 118°13'0 0.0
2016-Feb-10 12:34N 33°46' W 118°13'12037009.6
2016-Feb-10 12:23N 29°47' W 095°06'12031453.2
2016-Feb-10 11:34N 33°46' W 118°13'0 0.0
2016-Feb-10 10:33N 33°46' W 118°13'0 0.0
2016-Feb-10 09:31N 33°46' W 118°13'0 0.0
2016-Feb-10 08:34N 33°46' W 118°13'12033242.5
2016-Feb-10 08:11N 29°47' W 095°06'12031913.4
2016-Feb-10 07:34N 33°46' W 118°13'120316597.5
2016-Feb-10 07:29N 29°47' W 095°06'12031297.4
2016-Feb-10 06:34N 33°46' W 118°13'12036964.6
2016-Feb-10 06:23N 29°47' W 095°06'12031455.1
2016-Feb-10 05:34N 33°46' W 118°13'0 0.0
2016-Feb-10 04:34N 33°46' W 118°13'12037021.0
2016-Feb-10 04:23N 29°47' W 095°06'12031452.7
2016-Feb-10 03:34N 33°46' W 118°13'0 0.0
2016-Feb-10 02:31N 33°46' W 118°13'0 0.0
2016-Feb-10 01:34N 33°46' W 118°13'0 0.0
2016-Feb-10 00:34N 33°46' W 118°13'12033235.2
2016-Feb-10 00:11N 29°47' W 095°06'12031866.4
2016-Feb-09 23:33N 33°46' W 118°13'0 0.0
2016-Feb-09 21:33N 33°46' W 118°13'0 0.0
2016-Feb-09 20:29N 33°46' W 118°13'0 0.0
2016-Feb-09 19:32N 33°46' W 118°13'12031057.1
2016-Feb-09 18:24N 29°47' W 095°06'120369870.3
2016-Feb-09 18:23N 33°46' W 118°13'0 0.0
2016-Feb-09 16:33N 33°46' W 118°13'0 0.0
2016-Feb-09 15:31N 33°46' W 118°13'0 0.0
2016-Feb-09 14:31N 33°46' W 118°13'0 0.0
2016-Feb-09 13:33N 33°46' W 118°13'120344664.7
2016-Feb-09 13:31N 29°46' W 095°06'12031208.8
2016-Feb-09 12:31N 33°46' W 118°13'11982669.2
2016-Feb-09 12:04N 29°44' W 095°13'11982327.8
2016-Feb-09 11:33N 33°46' W 118°13'0 0.0
2016-Feb-09 10:33N 33°46' W 118°13'0 0.0
2016-Feb-09 09:34N 33°46' W 118°13'0 0.0
2016-Feb-09 08:33N 33°46' W 118°13'0 0.0
2016-Feb-09 07:33N 33°46' W 118°13'0 0.0
2016-Feb-09 06:32N 33°46' W 118°13'0 0.0
2016-Feb-09 05:30N 33°46' W 118°13'11981242.9
2016-Feb-09 04:33N 29°43' W 095°13'119849024.8
2016-Feb-09 04:31N 33°46' W 118°13'0 0.0
2016-Feb-09 03:33N 33°46' W 118°13'0 0.0
2016-Feb-09 02:33N 33°46' W 118°13'0 0.0
2016-Feb-09 01:33N 33°46' W 118°13'1202618355.9
2016-Feb-09 01:33N 29°44' W 095°08'12021211.8
2016-Feb-09 00:34N 33°46' W 118°13'0 0.0
2016-Feb-08 23:34N 33°46' W 118°13'0 0.0
2016-Feb-08 22:34N 33°46' W 118°13'0 0.0
2016-Feb-08 21:34N 33°46' W 118°13'0 0.0
2016-Feb-08 19:33N 33°46' W 118°13'0 0.0
2016-Feb-08 18:33N 33°46' W 118°13'0 0.0
2016-Feb-08 17:34N 33°46' W 118°13'0 0.0
2016-Feb-08 16:33N 33°46' W 118°13'120411652.0
2016-Feb-08 16:27N 29°46' W 095°05'12041342.4
2016-Feb-08 15:33N 33°46' W 118°13'0 0.0
2016-Feb-08 14:33N 33°46' W 118°13'0 0.0
2016-Feb-08 13:34N 33°46' W 118°13'0 0.0
2016-Feb-08 12:33N 33°46' W 118°13'0 0.0
2016-Feb-08 11:33N 33°46' W 118°13'0 0.0
2016-Feb-08 10:32N 33°46' W 118°13'0 0.0
2016-Feb-08 09:33N 33°46' W 118°13'0 0.0
2016-Feb-08 08:32N 33°46' W 118°13'0 0.0
2016-Feb-08 07:28N 33°46' W 118°13'0 0.0
2016-Feb-08 06:29N 33°46' W 118°13'0 0.0
2016-Feb-08 05:33N 33°46' W 118°13'0 0.0
2016-Feb-08 04:33N 33°46' W 118°13'0 0.0
2016-Feb-08 03:34N 33°46' W 118°13'0 0.0
2016-Feb-08 02:27N 33°46' W 118°13'0 0.0
2016-Feb-08 01:34N 33°46' W 118°13'0 0.0
2016-Feb-08 00:31N 33°46' W 118°13'0 0.0
2016-Feb-07 23:16N 33°46' W 118°13'0 0.0
2016-Feb-07 21:32N 33°46' W 118°13'0 0.0
2016-Feb-07 20:34N 33°46' W 118°13'0 0.0
2016-Feb-07 19:13N 33°46' W 118°13'0 0.0
2016-Feb-07 18:33N 33°46' W 118°13'0 0.0
2016-Feb-07 17:33N 33°46' W 118°13'0 0.0
2016-Feb-07 16:32N 33°46' W 118°13'0 0.0
2016-Feb-07 15:34N 33°46' W 118°13'0 0.0
2016-Feb-07 14:33N 33°46' W 118°13'0 0.0
2016-Feb-07 13:32N 33°46' W 118°13'0 0.0
2016-Feb-07 12:31N 33°46' W 118°13'0 0.0
2016-Feb-07 08:33N 33°46' W 118°13'0 0.0
2016-Feb-07 07:33N 33°46' W 118°13'0 0.0
2016-Feb-07 06:34N 33°46' W 118°13'0 0.0
2016-Feb-07 05:33N 33°46' W 118°13'0 0.0
2016-Feb-07 04:32N 33°46' W 118°13'0 0.0
2016-Feb-07 03:33N 33°46' W 118°13'0 0.0
2016-Feb-07 02:34N 33°46' W 118°13'0 0.0
2016-Feb-07 01:34N 33°46' W 118°13'0 0.0
2016-Feb-07 00:32N 33°46' W 118°13'0 0.0
2016-Feb-06 23:33N 33°46' W 118°13'0 0.0
2016-Feb-06 22:34N 33°46' W 118°13'0 0.0
2016-Feb-06 21:33N 33°46' W 118°13'0 0.0
2016-Feb-06 20:33N 33°46' W 118°13'0 0.0
2016-Feb-06 19:33N 33°46' W 118°13'0 0.0
2016-Feb-06 18:30N 33°46' W 118°13'0 0.0
2016-Feb-06 17:33N 33°46' W 118°13'0 0.0
2016-Feb-06 16:30N 33°46' W 118°13'0 0.0
2016-Feb-06 15:33N 33°46' W 118°13'0 0.0
2016-Feb-06 14:34N 33°46' W 118°13'0 0.0
2016-Feb-06 13:34N 33°46' W 118°13'0 0.0
2016-Feb-06 12:33N 33°46' W 118°13'0 0.0
2016-Feb-06 11:33N 33°46' W 118°13'0 0.0
2016-Feb-06 10:33N 33°46' W 118°13'0 0.0
2016-Feb-06 09:33N 33°46' W 118°13'0 0.0
2016-Feb-06 08:33N 33°46' W 118°13'120457018.4
2016-Feb-06 08:32N 29°45' W 095°06'12041226.2
2016-Feb-06 07:33N 33°46' W 118°13'12016628.8
2016-Feb-06 07:22N 29°45' W 095°10'12011472.1
2016-Feb-06 06:34N 33°46' W 118°13'12016460.4
2016-Feb-06 06:22N 29°45' W 095°10'12011474.6
2016-Feb-06 05:34N 33°46' W 118°13'12014233.1
2016-Feb-06 05:17N 29°45' W 095°10'12011675.2
2016-Feb-06 04:34N 33°46' W 118°13'120133765.7
2016-Feb-06 04:31N 29°45' W 095°10'12011244.5
2016-Feb-06 03:33N 33°46' W 118°13'12018929.8
2016-Feb-06 03:25N 29°45' W 095°10'12011387.5
2016-Feb-06 02:34N 33°46' W 118°13'120150847.1
2016-Feb-06 02:32N 29°45' W 095°10'12011226.1
2016-Feb-06 01:33N 33°46' W 118°13'1201864400.0
2016-Feb-06 01:33N 29°45' W 095°10'12011202.2
2016-Feb-06 00:33N 33°46' W 118°13'120196044.4
2016-Feb-06 00:33N 29°45' W 095°10'12011215.8
2016-Feb-05 23:33N 33°46' W 118°13'1201180083.3
2016-Feb-05 23:33N 29°45' W 095°10'0 0.0
2016-Feb-05 22:33N 29°45' W 095°10'120144556.7
2016-Feb-05 22:32N 33°46' W 118°13'0 0.0
2016-Feb-05 21:33N 33°46' W 118°13'1201308714.8
2016-Feb-05 21:33N 29°45' W 095°10'12011169.7
2016-Feb-05 20:32N 33°46' W 118°13'120113764.6
2016-Feb-05 20:26N 29°45' W 095°10'12011356.6
2016-Feb-05 19:33N 33°46' W 118°13'1202123661.6
2016-Feb-05 19:33N 29°44' W 095°08'0 0.0
2016-Feb-05 18:33N 29°44' W 095°08'120215738.8
2016-Feb-05 18:29N 33°46' W 118°13'0 0.0
2016-Feb-05 17:33N 33°46' W 118°13'0 0.0
2016-Feb-05 16:33N 33°46' W 118°13'12023810.0
2016-Feb-05 16:14N 29°44' W 095°08'12021741.0
2016-Feb-05 15:33N 33°46' W 118°13'0 0.0
2016-Feb-05 14:33N 33°46' W 118°13'0 0.0
2016-Feb-05 13:33N 33°46' W 118°13'0 0.0
2016-Feb-05 12:33N 33°46' W 118°13'0 0.0
2016-Feb-05 11:33N 33°46' W 118°13'0 0.0
2016-Feb-05 10:33N 33°46' W 118°13'0 0.0
2016-Feb-05 09:33N 33°46' W 118°13'0 0.0
2016-Feb-05 08:33N 33°46' W 118°13'0 0.0
2016-Feb-05 07:33N 33°46' W 118°13'0 0.0
2016-Feb-05 06:25N 33°46' W 118°13'0 0.0
2016-Feb-05 05:33N 33°46' W 118°13'0 0.0
2016-Feb-05 04:33N 33°46' W 118°13'1196430639.3
2016-Feb-05 04:33N 29°44' W 095°16'5 5.1
2016-Feb-05 03:33N 29°45' W 095°10'1201105411.0
2016-Feb-05 03:33N 33°46' W 118°13'0 0.0
2016-Feb-05 02:32N 33°46' W 118°13'0 0.0
2016-Feb-05 01:32N 33°46' W 118°13'0 0.0
2016-Feb-05 00:23N 33°46' W 118°13'0 0.0
2016-Feb-04 23:31N 33°46' W 118°13'0 0.0
2016-Feb-04 22:33N 33°46' W 118°13'0 0.0
2016-Feb-04 21:34N 33°46' W 118°13'1201227501.0
2016-Feb-04 21:33N 29°45' W 095°10'12011207.4
2016-Feb-04 20:34N 33°46' W 118°13'0 0.0
2016-Feb-04 19:34N 33°46' W 118°13'0 0.0
2016-Feb-04 18:33N 33°46' W 118°13'0 0.0
2016-Feb-04 17:33N 33°46' W 118°13'0 0.0
2016-Feb-04 16:33N 33°46' W 118°13'0 0.0
2016-Feb-04 15:33N 33°46' W 118°13'0 0.0
2016-Feb-04 14:33N 33°46' W 118°13'0 0.0
2016-Feb-04 13:33N 33°46' W 118°13'0 0.0
2016-Feb-04 12:33N 33°46' W 118°13'0 0.0
2016-Feb-04 11:33N 33°46' W 118°13'0 0.0
2016-Feb-04 10:33N 33°46' W 118°13'0 0.0
2016-Feb-04 09:33N 33°46' W 118°13'0 0.0
2016-Feb-04 08:33N 33°46' W 118°13'0 0.0
2016-Feb-04 07:33N 33°46' W 118°13'0 0.0
2016-Feb-04 06:33N 33°46' W 118°13'0 0.0
2016-Feb-04 05:33N 33°46' W 118°13'0 0.0
2016-Feb-04 04:33N 33°46' W 118°13'0 0.0
2016-Feb-04 03:33N 33°46' W 118°13'12002992.1
2016-Feb-04 03:09N 29°45' W 095°11'12002003.0
2016-Feb-04 02:33N 33°46' W 118°13'11991078907.5
2016-Feb-04 02:33N 29°44' W 095°12'11991196.8
2016-Feb-04 01:33N 33°46' W 118°13'11991438543.4
2016-Feb-04 01:33N 29°44' W 095°12'11991203.1
2016-Feb-04 00:33N 33°46' W 118°13'11991078907.5
2016-Feb-04 00:33N 29°44' W 095°12'11991200.1
2016-Feb-03 23:33N 33°46' W 118°13'1199331971.5
2016-Feb-03 23:33N 29°44' W 095°12'11991203.5
2016-Feb-03 22:33N 33°46' W 118°13'1199863126.0
2016-Feb-03 22:33N 29°44' W 095°12'11991200.5
2016-Feb-03 21:33N 33°46' W 118°13'1199165985.8
2016-Feb-03 21:33N 29°44' W 095°12'11991207.5
2016-Feb-03 20:33N 33°46' W 118°13'1199172625.2
2016-Feb-03 20:33N 29°44' W 095°12'0 0.0
2016-Feb-03 19:34N 29°44' W 095°12'1199719272.8
2016-Feb-03 19:33N 33°46' W 118°13'0 0.0
2016-Feb-03 18:33N 33°46' W 118°13'11991078909.2
2016-Feb-03 18:33N 29°44' W 095°12'11991199.8
2016-Feb-03 17:33N 33°46' W 118°13'120059157.4
2016-Feb-03 17:32N 29°45' W 095°11'12001224.4
2016-Feb-03 16:33N 33°46' W 118°13'0 0.0
2016-Feb-03 15:33N 33°46' W 118°13'0 0.0
2016-Feb-03 14:33N 33°46' W 118°13'0 0.0
2016-Feb-03 13:29N 33°46' W 118°13'  

Dump ship's entire track history